ANZ659 NZCH-NZQN
Flight info
| Callsign | ANZ659 |
|---|---|
| Flight time | 0h 41m |
| Altitude | 28000 |
| Route | GUPUT Y266 ELRUV |
| Aircraft | A320/M-SDE3FGHIRWY/LB1 |
Departure
| Time | 2026-05-05 18:36 |
|---|---|
| Airport | Christchurch International Airport (NZCH) |
Arrival
| Time | 2026-05-05 19:17 |
|---|---|
| Airport | Queenstown Airport (NZQN) |
| Time | Latitude | Longitude | Altitude | Speed | Heading |
|---|---|---|---|---|---|
| 2026-05-05 18:18 | -43.48866 | 172.53783 | 114 ft | 0 kts | 128° |
| 2026-05-05 18:24 | -43.48865 | 172.53781 | 114 ft | 2 kts | 128° |
| 2026-05-05 18:24 | -43.48849 | 172.53754 | 112 ft | 4 kts | 128° |
| 2026-05-05 18:24 | -43.48835 | 172.53731 | 114 ft | 3 kts | 128° |
| 2026-05-05 18:24 | -43.48821 | 172.53700 | 112 ft | 4 kts | 111° |
| 2026-05-05 18:25 | -43.48815 | 172.53665 | 111 ft | 4 kts | 83° |
| 2026-05-05 18:25 | -43.48817 | 172.53654 | 110 ft | 4 kts | 69° |
| 2026-05-05 18:25 | -43.48827 | 172.53631 | 113 ft | 1 kts | 39° |
| 2026-05-05 18:29 | -43.48826 | 172.53632 | 113 ft | 0 kts | 39° |
| 2026-05-05 18:30 | -43.48814 | 172.53646 | 110 ft | 4 kts | 39° |
| 2026-05-05 18:30 | -43.48786 | 172.53678 | 115 ft | 7 kts | 39° |
| 2026-05-05 18:30 | -43.48738 | 172.53731 | 114 ft | 11 kts | 38° |
| 2026-05-05 18:30 | -43.48667 | 172.53815 | 111 ft | 12 kts | 39° |
| 2026-05-05 18:31 | -43.48590 | 172.53901 | 108 ft | 16 kts | 40° |
| 2026-05-05 18:31 | -43.48505 | 172.53996 | 105 ft | 18 kts | 40° |
| 2026-05-05 18:31 | -43.48411 | 172.54104 | 105 ft | 16 kts | 41° |
| 2026-05-05 18:31 | -43.48319 | 172.54215 | 105 ft | 19 kts | 40° |
| 2026-05-05 18:32 | -43.48213 | 172.54336 | 106 ft | 21 kts | 40° |
| 2026-05-05 18:32 | -43.48098 | 172.54473 | 106 ft | 22 kts | 43° |
| 2026-05-05 18:32 | -43.47992 | 172.54597 | 105 ft | 20 kts | 39° |
| 2026-05-05 18:32 | -43.47894 | 172.54711 | 101 ft | 19 kts | 43° |
| 2026-05-05 18:33 | -43.47801 | 172.54821 | 99 ft | 15 kts | 39° |
| 2026-05-05 18:33 | -43.47727 | 172.54904 | 99 ft | 10 kts | 37° |
| 2026-05-05 18:33 | -43.47645 | 172.54903 | 100 ft | 14 kts | 339° |
| 2026-05-05 18:33 | -43.47570 | 172.54870 | 99 ft | 6 kts | 320° |
| 2026-05-05 18:34 | -43.47555 | 172.54805 | 98 ft | 9 kts | 256° |
| 2026-05-05 18:34 | -43.47557 | 172.54793 | 99 ft | 2 kts | 262° |
| 2026-05-05 18:34 | -43.47560 | 172.54758 | 99 ft | 5 kts | 254° |
| 2026-05-05 18:34 | -43.47573 | 172.54735 | 99 ft | 0 kts | 223° |
| 2026-05-05 18:35 | -43.47573 | 172.54734 | 99 ft | 1 kts | 223° |
| 2026-05-05 18:35 | -43.47583 | 172.54720 | 99 ft | 5 kts | 225° |
| 2026-05-05 18:35 | -43.47626 | 172.54669 | 101 ft | 17 kts | 220° |
| 2026-05-05 18:36 | -43.47927 | 172.54323 | 108 ft | 102 kts | 220° |
| 2026-05-05 18:36 | -43.48666 | 172.53469 | 157 ft | 167 kts | 221° |
| 2026-05-05 18:36 | -43.49576 | 172.52392 | 909 ft | 178 kts | 224° |
| 2026-05-05 18:36 | -43.50490 | 172.51169 | 1537 ft | 192 kts | 238° |
| 2026-05-05 18:37 | -43.51289 | 172.49575 | 1930 ft | 214 kts | 240° |
| 2026-05-05 18:37 | -43.52174 | 172.47780 | 2400 ft | 238 kts | 239° |
| 2026-05-05 18:37 | -43.53138 | 172.45824 | 3121 ft | 251 kts | 238° |
| 2026-05-05 18:37 | -43.54128 | 172.43821 | 4096 ft | 254 kts | 238° |
| 2026-05-05 18:38 | -43.55130 | 172.41795 | 5071 ft | 258 kts | 238° |
| 2026-05-05 18:38 | -43.56145 | 172.39743 | 6063 ft | 260 kts | 240° |
| 2026-05-05 18:38 | -43.57171 | 172.37673 | 6981 ft | 264 kts | 240° |
| 2026-05-05 18:38 | -43.58201 | 172.35593 | 7783 ft | 269 kts | 239° |
| 2026-05-05 18:39 | -43.59203 | 172.33383 | 8587 ft | 275 kts | 243° |
| 2026-05-05 18:39 | -43.60153 | 172.31069 | 9406 ft | 280 kts | 245° |
| 2026-05-05 18:39 | -43.61092 | 172.28688 | 10173 ft | 287 kts | 245° |
| 2026-05-05 18:39 | -43.62075 | 172.26159 | 10457 ft | 311 kts | 245° |
| 2026-05-05 18:40 | -43.63137 | 172.23433 | 10685 ft | 334 kts | 245° |
| 2026-05-05 18:40 | -43.64266 | 172.20569 | 11208 ft | 344 kts | 244° |
| 2026-05-05 18:40 | -43.65428 | 172.17653 | 11879 ft | 349 kts | 244° |
| 2026-05-05 18:40 | -43.66611 | 172.14697 | 12581 ft | 354 kts | 244° |
| 2026-05-05 18:41 | -43.67811 | 172.11706 | 13278 ft | 358 kts | 244° |
| 2026-05-05 18:41 | -43.69027 | 172.08674 | 13972 ft | 363 kts | 244° |
| 2026-05-05 18:41 | -43.70254 | 172.05605 | 14594 ft | 367 kts | 244° |
| 2026-05-05 18:41 | -43.71491 | 172.02509 | 15236 ft | 370 kts | 244° |
| 2026-05-05 18:42 | -43.72741 | 171.99381 | 15811 ft | 374 kts | 244° |
| 2026-05-05 18:42 | -43.74004 | 171.96217 | 16430 ft | 377 kts | 244° |
| 2026-05-05 18:42 | -43.75275 | 171.93022 | 17079 ft | 380 kts | 244° |
| 2026-05-05 18:42 | -43.76548 | 171.89805 | 17736 ft | 383 kts | 244° |
| 2026-05-05 18:43 | -43.77833 | 171.86558 | 18390 ft | 386 kts | 244° |
| 2026-05-05 18:43 | -43.79127 | 171.83282 | 18969 ft | 389 kts | 244° |
| 2026-05-05 18:43 | -43.80430 | 171.79981 | 19585 ft | 392 kts | 244° |
| 2026-05-05 18:43 | -43.81739 | 171.76665 | 20216 ft | 394 kts | 244° |
| 2026-05-05 18:44 | -43.83058 | 171.73326 | 20840 ft | 396 kts | 244° |
| 2026-05-05 18:44 | -43.84395 | 171.69972 | 21437 ft | 399 kts | 243° |
| 2026-05-05 18:44 | -43.85786 | 171.66637 | 22000 ft | 401 kts | 242° |
| 2026-05-05 18:44 | -43.87217 | 171.63310 | 22599 ft | 403 kts | 241° |
| 2026-05-05 18:45 | -43.88670 | 171.59981 | 23178 ft | 404 kts | 241° |
| 2026-05-05 18:45 | -43.90127 | 171.56640 | 23727 ft | 406 kts | 241° |
| 2026-05-05 18:45 | -43.91580 | 171.53277 | 24176 ft | 408 kts | 241° |
| 2026-05-05 18:45 | -43.93030 | 171.49887 | 24601 ft | 410 kts | 241° |
| 2026-05-05 18:46 | -43.94477 | 171.46474 | 25008 ft | 412 kts | 242° |
| 2026-05-05 18:46 | -43.95928 | 171.43034 | 25413 ft | 414 kts | 242° |
| 2026-05-05 18:46 | -43.97383 | 171.39578 | 25809 ft | 416 kts | 242° |
| 2026-05-05 18:46 | -43.98848 | 171.36098 | 26201 ft | 418 kts | 242° |
| 2026-05-05 18:47 | -44.00320 | 171.32605 | 26595 ft | 420 kts | 242° |
| 2026-05-05 18:47 | -44.01800 | 171.29095 | 26985 ft | 422 kts | 242° |
| 2026-05-05 18:47 | -44.03289 | 171.25570 | 27407 ft | 423 kts | 242° |
| 2026-05-05 18:47 | -44.04779 | 171.22034 | 27815 ft | 425 kts | 242° |
| 2026-05-05 18:48 | -44.06271 | 171.18478 | 28116 ft | 427 kts | 242° |
| 2026-05-05 18:48 | -44.07770 | 171.14907 | 28177 ft | 429 kts | 242° |
| 2026-05-05 18:48 | -44.10791 | 171.07717 | 28183 ft | 431 kts | 242° |
| 2026-05-05 18:49 | -44.13803 | 171.00499 | 28190 ft | 431 kts | 242° |
| 2026-05-05 18:49 | -44.16804 | 170.93273 | 28183 ft | 431 kts | 242° |
| 2026-05-05 18:50 | -44.19813 | 170.86057 | 28195 ft | 430 kts | 243° |
| 2026-05-05 18:50 | -44.22804 | 170.78856 | 28191 ft | 429 kts | 243° |
| 2026-05-05 18:51 | -44.25781 | 170.71649 | 28213 ft | 429 kts | 243° |
| 2026-05-05 18:51 | -44.28763 | 170.64430 | 28206 ft | 430 kts | 243° |
| 2026-05-05 18:52 | -44.31747 | 170.57196 | 28230 ft | 430 kts | 243° |
| 2026-05-05 18:52 | -44.34717 | 170.49956 | 28240 ft | 430 kts | 244° |
| 2026-05-05 18:53 | -44.37682 | 170.42705 | 28253 ft | 429 kts | 243° |
| 2026-05-05 18:53 | -44.40639 | 170.35457 | 28245 ft | 429 kts | 244° |
| 2026-05-05 18:54 | -44.43572 | 170.28249 | 28260 ft | 429 kts | 244° |
| 2026-05-05 18:54 | -44.46524 | 170.20991 | 28259 ft | 429 kts | 244° |
| 2026-05-05 18:55 | -44.49466 | 170.13728 | 28273 ft | 429 kts | 244° |
| 2026-05-05 18:55 | -44.52411 | 170.06456 | 28273 ft | 429 kts | 244° |
| 2026-05-05 18:56 | -44.55339 | 169.99183 | 28272 ft | 428 kts | 244° |
| 2026-05-05 18:56 | -44.58268 | 169.91898 | 28272 ft | 429 kts | 244° |
| 2026-05-05 18:57 | -44.61188 | 169.84599 | 28267 ft | 429 kts | 244° |
| 2026-05-05 18:57 | -44.64110 | 169.77300 | 28258 ft | 429 kts | 244° |
| 2026-05-05 18:58 | -44.67014 | 169.70023 | 28075 ft | 420 kts | 245° |
| 2026-05-05 18:58 | -44.68424 | 169.66494 | 27809 ft | 408 kts | 245° |
| 2026-05-05 18:58 | -44.69799 | 169.63044 | 27548 ft | 402 kts | 245° |
| 2026-05-05 18:59 | -44.71156 | 169.59618 | 27289 ft | 400 kts | 245° |
| 2026-05-05 18:59 | -44.72503 | 169.56207 | 27056 ft | 398 kts | 245° |
| 2026-05-05 18:59 | -44.73846 | 169.52802 | 26804 ft | 397 kts | 245° |
| 2026-05-05 18:59 | -44.75184 | 169.49414 | 26547 ft | 396 kts | 245° |
| 2026-05-05 19:00 | -44.76525 | 169.46027 | 26296 ft | 395 kts | 245° |
| 2026-05-05 19:00 | -44.77862 | 169.42649 | 26046 ft | 394 kts | 245° |
| 2026-05-05 19:00 | -44.79189 | 169.39283 | 25807 ft | 393 kts | 245° |
| 2026-05-05 19:00 | -44.80508 | 169.35929 | 25567 ft | 391 kts | 245° |
| 2026-05-05 19:01 | -44.81718 | 169.32514 | 25320 ft | 387 kts | 252° |
| 2026-05-05 19:01 | -44.82567 | 169.28936 | 25080 ft | 385 kts | 256° |
| 2026-05-05 19:01 | -44.83373 | 169.25335 | 24845 ft | 385 kts | 256° |
| 2026-05-05 19:01 | -44.84174 | 169.21759 | 24477 ft | 382 kts | 256° |
| 2026-05-05 19:02 | -44.84973 | 169.18194 | 24006 ft | 381 kts | 256° |
| 2026-05-05 19:02 | -44.85773 | 169.14634 | 23486 ft | 381 kts | 256° |
| 2026-05-05 19:02 | -44.86568 | 169.11088 | 23023 ft | 379 kts | 256° |
| 2026-05-05 19:02 | -44.87359 | 169.07556 | 22535 ft | 376 kts | 256° |
| 2026-05-05 19:03 | -44.88144 | 169.04045 | 22068 ft | 375 kts | 255° |
| 2026-05-05 19:03 | -44.88922 | 169.00551 | 21597 ft | 373 kts | 255° |
| 2026-05-05 19:03 | -44.89697 | 168.97074 | 21109 ft | 370 kts | 255° |
| 2026-05-05 19:03 | -44.90460 | 168.93614 | 20630 ft | 367 kts | 257° |
| 2026-05-05 19:04 | -44.90895 | 168.90098 | 20121 ft | 363 kts | 268° |
| 2026-05-05 19:04 | -44.90861 | 168.86552 | 19624 ft | 360 kts | 274° |
| 2026-05-05 19:04 | -44.90732 | 168.83031 | 19112 ft | 359 kts | 274° |
| 2026-05-05 19:04 | -44.90608 | 168.79519 | 18609 ft | 358 kts | 274° |
| 2026-05-05 19:05 | -44.90489 | 168.76022 | 18039 ft | 356 kts | 274° |
| 2026-05-05 19:05 | -44.90371 | 168.72552 | 17529 ft | 353 kts | 274° |
| 2026-05-05 19:05 | -44.90257 | 168.69108 | 16999 ft | 350 kts | 272° |
| 2026-05-05 19:05 | -44.90466 | 168.65742 | 16485 ft | 339 kts | 260° |
| 2026-05-05 19:06 | -44.91155 | 168.62630 | 15995 ft | 328 kts | 249° |
| 2026-05-05 19:06 | -44.92133 | 168.59830 | 15524 ft | 317 kts | 246° |
| 2026-05-05 19:06 | -44.93130 | 168.57032 | 15054 ft | 314 kts | 246° |
| 2026-05-05 19:06 | -44.94105 | 168.54274 | 14586 ft | 314 kts | 247° |
| 2026-05-05 19:07 | -44.95064 | 168.51550 | 14137 ft | 313 kts | 247° |
| 2026-05-05 19:07 | -44.95714 | 168.49701 | 13795 ft | 311 kts | 248° |
| 2026-05-05 19:07 | -44.96668 | 168.46988 | 13255 ft | 306 kts | 249° |
| 2026-05-05 19:07 | -44.97918 | 168.43452 | 12543 ft | 297 kts | 249° |
| 2026-05-05 19:08 | -44.98819 | 168.40899 | 12122 ft | 290 kts | 250° |
| 2026-05-05 19:08 | -44.99690 | 168.38439 | 11969 ft | 269 kts | 250° |
| 2026-05-05 19:08 | -45.00507 | 168.36134 | 11592 ft | 258 kts | 251° |
| 2026-05-05 19:08 | -45.01294 | 168.33894 | 11225 ft | 248 kts | 251° |
| 2026-05-05 19:09 | -45.02046 | 168.31745 | 10866 ft | 241 kts | 252° |
| 2026-05-05 19:09 | -45.02899 | 168.29704 | 10502 ft | 243 kts | 242° |
| 2026-05-05 19:09 | -45.04061 | 168.27901 | 10347 ft | 253 kts | 230° |
| 2026-05-05 19:09 | -45.05504 | 168.26453 | 10214 ft | 255 kts | 218° |
| 2026-05-05 19:10 | -45.07137 | 168.25489 | 10078 ft | 254 kts | 205° |
| 2026-05-05 19:10 | -45.08326 | 168.25111 | 10022 ft | 265 kts | 197° |
| 2026-05-05 19:10 | -45.10199 | 168.25001 | 9748 ft | 278 kts | 182° |
| 2026-05-05 19:10 | -45.12145 | 168.25563 | 9308 ft | 292 kts | 164° |
| 2026-05-05 19:11 | -45.13939 | 168.26865 | 8904 ft | 297 kts | 143° |
| 2026-05-05 19:11 | -45.15381 | 168.28959 | 8492 ft | 299 kts | 121° |
| 2026-05-05 19:11 | -45.16264 | 168.31619 | 8054 ft | 298 kts | 99° |
| 2026-05-05 19:11 | -45.16474 | 168.34487 | 7608 ft | 292 kts | 79° |
| 2026-05-05 19:12 | -45.16007 | 168.37273 | 7130 ft | 290 kts | 59° |
| 2026-05-05 19:12 | -45.15088 | 168.39792 | 6669 ft | 289 kts | 56° |
| 2026-05-05 19:12 | -45.14151 | 168.42286 | 6160 ft | 283 kts | 57° |
| 2026-05-05 19:12 | -45.13244 | 168.44708 | 5681 ft | 275 kts | 58° |
| 2026-05-05 19:13 | -45.12357 | 168.47076 | 5197 ft | 269 kts | 58° |
| 2026-05-05 19:13 | -45.11499 | 168.49378 | 4846 ft | 257 kts | 59° |
| 2026-05-05 19:13 | -45.10699 | 168.51532 | 4719 ft | 237 kts | 58° |
| 2026-05-05 19:13 | -45.09957 | 168.53525 | 4517 ft | 222 kts | 59° |
| 2026-05-05 19:14 | -45.09246 | 168.55426 | 4246 ft | 218 kts | 60° |
| 2026-05-05 19:14 | -45.08532 | 168.57319 | 3934 ft | 218 kts | 60° |
| 2026-05-05 19:14 | -45.07826 | 168.59194 | 3608 ft | 212 kts | 59° |
| 2026-05-05 19:14 | -45.07153 | 168.60986 | 3321 ft | 201 kts | 60° |
| 2026-05-05 19:15 | -45.06519 | 168.62672 | 3095 ft | 187 kts | 58° |
| 2026-05-05 19:15 | -45.05925 | 168.64252 | 2812 ft | 177 kts | 59° |
| 2026-05-05 19:15 | -45.05358 | 168.65750 | 2574 ft | 168 kts | 58° |
| 2026-05-05 19:15 | -45.04813 | 168.67162 | 2347 ft | 168 kts | 55° |
| 2026-05-05 19:16 | -45.04065 | 168.68550 | 2188 ft | 179 kts | 38° |
| 2026-05-05 19:16 | -45.03094 | 168.69607 | 1830 ft | 171 kts | 32° |
| 2026-05-05 19:16 | -45.02381 | 168.70753 | 1874 ft | 146 kts | 65° |
| 2026-05-05 19:16 | -45.02172 | 168.72191 | 1578 ft | 152 kts | 82° |
| 2026-05-05 19:17 | -45.02015 | 168.73621 | 1250 ft | 144 kts | 63° |
| 2026-05-05 19:17 | -45.01806 | 168.74765 | 1172 ft | 83 kts | 77° |
| 2026-05-05 19:17 | -45.01745 | 168.75146 | 1193 ft | 1 kts | 79° |
| 2026-05-05 19:17 | -45.01739 | 168.75197 | 1190 ft | 10 kts | 81° |
| 2026-05-05 19:18 | -45.01721 | 168.75321 | 1191 ft | 14 kts | 78° |
| 2026-05-05 19:18 | -45.01697 | 168.75477 | 1196 ft | 18 kts | 77° |
| 2026-05-05 19:18 | -45.01674 | 168.75613 | 1197 ft | 12 kts | 80° |
| 2026-05-05 19:18 | -45.01687 | 168.75695 | 1197 ft | 5 kts | 140° |
| 2026-05-05 19:19 | -45.01704 | 168.75705 | 1197 ft | 4 kts | 161° |
| 2026-05-05 19:19 | -45.01737 | 168.75705 | 1197 ft | 6 kts | 198° |
| 2026-05-05 19:19 | -45.01757 | 168.75665 | 1198 ft | 0 kts | 258° |
| 2026-05-05 19:20 | -45.01757 | 168.75664 | 1198 ft | 1 kts | 258° |
| 2026-05-05 19:20 | -45.01761 | 168.75634 | 1201 ft | 5 kts | 259° |
| 2026-05-05 19:20 | -45.01774 | 168.75562 | 1200 ft | 10 kts | 255° |
| 2026-05-05 19:21 | -45.01794 | 168.75445 | 1197 ft | 13 kts | 257° |
| 2026-05-05 19:21 | -45.01814 | 168.75315 | 1189 ft | 13 kts | 256° |
| 2026-05-05 19:21 | -45.01836 | 168.75170 | 1190 ft | 15 kts | 257° |
| 2026-05-05 19:21 | -45.01854 | 168.75061 | 1184 ft | 11 kts | 257° |
| 2026-05-05 19:22 | -45.01872 | 168.74939 | 1169 ft | 14 kts | 259° |
| 2026-05-05 19:22 | -45.01893 | 168.74802 | 1172 ft | 12 kts | 257° |
| 2026-05-05 19:22 | -45.01915 | 168.74665 | 1169 ft | 15 kts | 257° |
| 2026-05-05 19:22 | -45.01935 | 168.74543 | 1171 ft | 12 kts | 257° |
| 2026-05-05 19:23 | -45.01954 | 168.74430 | 1175 ft | 10 kts | 256° |
| 2026-05-05 19:23 | -45.01967 | 168.74342 | 1173 ft | 9 kts | 260° |
| 2026-05-05 19:23 | -45.01987 | 168.74300 | 1172 ft | 5 kts | 186° |
| 2026-05-05 19:23 | -45.02052 | 168.74332 | 1168 ft | 12 kts | 160° |
| 2026-05-05 19:24 | -45.02112 | 168.74357 | 1170 ft | 8 kts | 183° |
| 2026-05-05 19:24 | -45.02134 | 168.74324 | 1170 ft | 4 kts | 247° |
| 2026-05-05 19:24 | -45.02144 | 168.74285 | 1169 ft | 5 kts | 252° |
| 2026-05-05 19:24 | -45.02145 | 168.74226 | 1173 ft | 7 kts | 289° |
| 2026-05-05 19:25 | -45.02145 | 168.74156 | 1171 ft | 9 kts | 248° |
| 2026-05-05 19:25 | -45.02160 | 168.74099 | 1171 ft | 0 kts | 249° |
| 2026-05-05 19:25 | -45.02162 | 168.74091 | 1174 ft | 0 kts | 249° |